Ludlow, Vermont
Current Conditions -  °F | °C
As of 4:54 PM on Thursday 23 Oct 2014 (Local Time) from KVSF Reporting Station
Haze Haze  
Wind Chill: 44°   Ceiling: 1800
Heat Index: 48°   Visibility: 4mi
Dew Point: 45°   Wind: 8mph
Humidity: 89%   Direction: 30°NNE
Pressure: 29.78"   Gusts: NA
Location:  43.4°N, 72.7°W
Report Text: KVSF 232054Z AUTO 03007KT 360V060 4SM BR FEW014 BKN018 OVC041 09/07 A2978 RMK AO2 RAE1955 SLP089 P0000 60000 T00890072 50002
Loading
Personal Weather Stations






























Interactive Weather Map New forecast layout! Learn more

10-Day Weather Forecast

Advertisements
Track Severe Weather on mobile